Time;durP1;ratioP1;P1;durP2;ratioP2;P2;SDS_P1;SDS_P2;PMS_P1;PMS_P2;Temp;Humidity;BMP_temperature;BMP_pressure;BME280_temperature;BME280_humidity;BME280_pressure;Samples;Min_cycle;Max_cycle;Signal;HPM_P1;HPM_P2
2023/07/30 00:02:21;;;;;;;;;;;16.50;99.90;;;;;;5146782;27;19929;-45
2023/07/30 00:04:46;;;;;;;;;;;16.50;99.90;;;;;;5147699;27;19911;-45
2023/07/30 00:07:12;;;;;;;;;;;16.40;99.90;;;;;;5146548;27;19907;-45
2023/07/30 00:09:38;;;;;;;;;;;16.40;99.90;;;;;;5147160;27;19935;-43
2023/07/30 00:12:04;;;;;;;;;;;16.40;99.90;;;;;;5147367;27;20122;-43
2023/07/30 00:14:29;;;;;;;;;;;16.30;99.90;;;;;;5143291;27;19916;-44
2023/07/30 00:16:55;;;;;;;;;;;16.40;99.90;;;;;;5147426;27;19907;-45
2023/07/30 00:19:20;;;;;;;;;;;16.30;99.90;;;;;;5146162;27;20428;-44
2023/07/30 00:21:46;;;;;;;;;;;16.20;99.90;;;;;;5147959;27;19907;-44
2023/07/30 00:24:14;;;;;;;;;;;16.20;99.90;;;;;;5146406;27;19907;-45
2023/07/30 00:26:40;;;;;;;;;;;16.10;99.90;;;;;;5146057;27;19907;-43
2023/07/30 00:29:05;;;;;;;;;;;16.10;99.90;;;;;;5148066;27;20376;-44
2023/07/30 00:31:31;;;;;;;;;;;16.10;99.90;;;;;;5145146;27;19908;-44
2023/07/30 00:33:56;;;;;;;;;;;16.10;99.90;;;;;;5146212;27;19990;-46
2023/07/30 00:36:22;;;;;;;;;;;16.10;99.90;;;;;;5146169;27;19908;-44
2023/07/30 00:38:47;;;;;;;;;;;16.10;99.90;;;;;;5147574;27;19971;-48
2023/07/30 00:41:13;;;;;;;;;;;16.10;99.90;;;;;;5145955;27;19907;-44
2023/07/30 00:43:38;;;;;;;;;;;16.10;99.90;;;;;;5146410;27;19919;-44
2023/07/30 00:46:04;;;;;;;;;;;16.20;99.90;;;;;;5146896;27;19918;-45
2023/07/30 00:48:29;;;;;;;;;;;16.20;99.90;;;;;;5145610;27;20381;-50
2023/07/30 00:50:55;;;;;;;;;;;16.10;99.90;;;;;;5147089;27;19960;-44
2023/07/30 00:53:21;;;;;;;;;;;16.10;99.90;;;;;;5146503;27;19942;-46
2023/07/30 00:55:47;;;;;;;;;;;16.10;99.90;;;;;;5145459;27;19958;-44
2023/07/30 00:58:12;;;;;;;;;;;16.10;99.90;;;;;;5147078;27;19950;-46
2023/07/30 01:00:38;;;;;;;;;;;16.00;99.90;;;;;;5145444;27;20255;-44
2023/07/30 01:03:04;;;;;;;;;;;16.00;99.90;;;;;;5139442;27;19925;-45
2023/07/30 01:05:29;;;;;;;;;;;16.00;99.90;;;;;;5141277;27;19922;-47
2023/07/30 01:07:55;;;;;;;;;;;15.90;99.90;;;;;;5140511;27;19912;-45
2023/07/30 01:10:21;;;;;;;;;;;16.00;99.90;;;;;;5140245;27;19907;-45
2023/07/30 01:12:47;;;;;;;;;;;15.90;99.90;;;;;;5138619;27;20032;-45
2023/07/30 01:15:12;;;;;;;;;;;16.00;99.90;;;;;;5135759;27;19920;-46
2023/07/30 01:17:39;;;;;;;;;;;16.00;99.90;;;;;;5136620;27;19908;-46
2023/07/30 01:20:04;;;;;;;;;;;16.00;99.90;;;;;;5136326;27;19943;-45
2023/07/30 01:22:30;;;;;;;;;;;16.00;99.90;;;;;;5135538;27;19970;-46
2023/07/30 01:24:55;;;;;;;;;;;15.90;99.90;;;;;;5136258;27;20271;-46
2023/07/30 01:27:26;;;;;;;;;;;15.90;99.90;;;;;;5136426;27;19907;-45
2023/07/30 01:29:54;;;;;;;;;;;15.90;99.90;;;;;;5135621;27;20289;-44
2023/07/30 01:32:22;;;;;;;;;;;15.90;99.90;;;;;;5136204;27;19980;-48
2023/07/30 01:34:49;;;;;;;;;;;15.90;99.90;;;;;;5136026;27;19907;-49
2023/07/30 01:37:15;;;;;;;;;;;15.90;99.90;;;;;;5135412;27;20385;-44
2023/07/30 01:39:41;;;;;;;;;;;15.90;99.90;;;;;;5136203;27;20051;-45
2023/07/30 01:42:06;;;;;;;;;;;15.80;99.90;;;;;;5135615;27;19968;-44
2023/07/30 01:44:32;;;;;;;;;;;15.80;99.90;;;;;;5135128;27;19990;-46
2023/07/30 01:46:57;;;;;;;;;;;15.70;99.90;;;;;;5136013;27;19914;-45
2023/07/30 01:49:23;;;;;;;;;;;15.70;99.90;;;;;;5135187;27;19911;-44
2023/07/30 01:51:49;;;;;;;;;;;15.70;99.90;;;;;;5135747;27;19918;-45
2023/07/30 01:54:14;;;;;;;;;;;15.70;99.90;;;;;;5135825;27;19919;-44
2023/07/30 01:56:40;;;;;;;;;;;15.80;99.90;;;;;;5135106;27;19998;-44
2023/07/30 01:59:05;;;;;;;;;;;15.80;99.90;;;;;;5135741;27;19990;-47
2023/07/30 02:01:31;;;;;;;;;;;15.70;99.90;;;;;;5135689;27;19929;-45
2023/07/30 02:03:56;;;;;;;;;;;15.70;99.90;;;;;;5134834;27;20018;-45
2023/07/30 02:06:22;;;;;;;;;;;15.60;99.90;;;;;;5135609;27;20384;-46
2023/07/30 02:08:47;;;;;;;;;;;15.70;99.90;;;;;;5145540;27;20023;-44
2023/07/30 02:11:13;;;;;;;;;;;15.70;99.90;;;;;;5155038;27;19918;-43
2023/07/30 02:13:38;;;;;;;;;;;15.70;99.90;;;;;;5156179;27;19914;-43
2023/07/30 02:16:04;;;;;;;;;;;15.70;99.90;;;;;;5156238;27;20005;-45
2023/07/30 02:18:29;;;;;;;;;;;15.70;99.90;;;;;;5155130;27;19927;-45
2023/07/30 02:20:54;;;;;;;;;;;15.70;99.90;;;;;;5155967;27;19911;-45
2023/07/30 02:23:20;;;;;;;;;;;15.70;99.90;;;;;;5155579;27;19922;-45
2023/07/30 02:25:45;;;;;;;;;;;15.60;99.90;;;;;;5155159;27;19953;-48
2023/07/30 02:28:11;;;;;;;;;;;15.60;99.90;;;;;;5153952;27;19937;-43
2023/07/30 02:30:36;;;;;;;;;;;15.60;99.90;;;;;;5155768;27;19907;-46
2023/07/30 02:33:02;;;;;;;;;;;15.60;99.90;;;;;;5155037;27;20373;-44
2023/07/30 02:35:27;;;;;;;;;;;15.60;99.90;;;;;;5155669;27;19917;-49
2023/07/30 02:37:53;;;;;;;;;;;15.70;99.90;;;;;;5148113;27;19911;-44
2023/07/30 02:40:18;;;;;;;;;;;15.60;99.90;;;;;;5135010;27;19951;-44
2023/07/30 02:42:44;;;;;;;;;;;15.60;99.90;;;;;;5152010;27;19946;-43
2023/07/30 02:45:09;;;;;;;;;;;15.60;99.90;;;;;;5155398;27;19938;-47
2023/07/30 02:47:35;;;;;;;;;;;15.60;99.90;;;;;;5154678;27;19952;-44
2023/07/30 02:50:01;;;;;;;;;;;15.60;99.90;;;;;;5155181;27;19997;-43
2023/07/30 02:52:27;;;;;;;;;;;15.70;99.90;;;;;;5155012;27;20014;-44
2023/07/30 02:54:52;;;;;;;;;;;15.70;99.90;;;;;;5154363;27;19911;-45
2023/07/30 02:57:17;;;;;;;;;;;15.60;99.90;;;;;;5155666;27;19958;-46
2023/07/30 02:59:43;;;;;;;;;;;15.70;99.90;;;;;;5154610;27;19907;-45
2023/07/30 03:02:08;;;;;;;;;;;15.70;99.90;;;;;;5154738;27;20014;-43
2023/07/30 03:04:34;;;;;;;;;;;15.70;99.90;;;;;;5154511;27;20373;-46
2023/07/30 03:06:59;;;;;;;;;;;15.70;99.90;;;;;;5136505;27;19911;-46
2023/07/30 03:09:25;;;;;;;;;;;15.60;99.90;;;;;;5134454;27;19911;-44
2023/07/30 03:11:50;;;;;;;;;;;15.60;99.90;;;;;;5140436;27;20377;-45
2023/07/30 03:14:16;;;;;;;;;;;15.60;99.90;;;;;;5154246;27;19918;-45
2023/07/30 03:16:41;;;;;;;;;;;15.60;99.90;;;;;;5155034;27;20417;-44
2023/07/30 03:19:07;;;;;;;;;;;15.60;99.90;;;;;;5154720;27;20362;-44
2023/07/30 03:21:32;;;;;;;;;;;15.60;99.90;;;;;;5153946;27;19908;-44
2023/07/30 03:23:58;;;;;;;;;;;15.60;99.90;;;;;;5152839;27;19915;-46
2023/07/30 03:26:23;;;;;;;;;;;15.60;99.90;;;;;;5134016;27;20001;-43
2023/07/30 03:28:49;;;;;;;;;;;15.50;99.90;;;;;;5133159;27;19907;-45
2023/07/30 03:31:14;;;;;;;;;;;15.50;99.90;;;;;;5133938;27;19919;-45
2023/07/30 03:33:43;;;;;;;;;;;15.50;99.90;;;;;;5133285;27;20385;-44
2023/07/30 03:36:10;;;;;;;;;;;15.50;99.90;;;;;;5132969;27;19908;-46
2023/07/30 03:38:35;;;;;;;;;;;15.50;99.90;;;;;;5134079;27;19909;-44
2023/07/30 03:41:01;;;;;;;;;;;15.50;99.90;;;;;;5133873;27;19915;-47
2023/07/30 03:43:26;;;;;;;;;;;15.40;99.90;;;;;;5132850;27;20323;-46
2023/07/30 03:45:51;;;;;;;;;;;15.40;99.90;;;;;;5133878;27;19914;-47
2023/07/30 03:48:17;;;;;;;;;;;15.40;99.90;;;;;;5133617;27;19912;-45
2023/07/30 03:50:42;;;;;;;;;;;15.40;99.90;;;;;;5132974;27;19911;-44
2023/07/30 03:53:08;;;;;;;;;;;15.40;99.90;;;;;;5133550;27;19953;-44
2023/07/30 03:55:33;;;;;;;;;;;15.30;99.90;;;;;;5133657;27;20289;-44
2023/07/30 03:57:59;;;;;;;;;;;15.30;99.90;;;;;;5114433;28;19912;-43
2023/07/30 04:00:24;;;;;;;;;;;15.30;99.90;;;;;;5133669;28;19911;-44
2023/07/30 04:02:50;;;;;;;;;;;15.30;99.90;;;;;;5133095;27;19919;-44
2023/07/30 04:05:15;;;;;;;;;;;15.30;99.90;;;;;;5133024;28;20297;-44
2023/07/30 04:07:41;;;;;;;;;;;15.20;99.90;;;;;;5133626;28;19915;-45
2023/07/30 04:10:06;;;;;;;;;;;15.20;99.90;;;;;;5132887;28;19938;-45
2023/07/30 04:12:32;;;;;;;;;;;15.20;99.90;;;;;;5140152;27;19943;-45
2023/07/30 04:14:57;;;;;;;;;;;15.20;99.90;;;;;;5149336;27;20370;-44
2023/07/30 04:17:23;;;;;;;;;;;15.20;99.90;;;;;;5140134;27;19918;-45
2023/07/30 04:19:48;;;;;;;;;;;15.10;99.90;;;;;;5137042;27;20339;-45
2023/07/30 04:22:14;;;;;;;;;;;15.20;99.90;;;;;;5146368;27;19924;-44
2023/07/30 04:24:40;;;;;;;;;;;15.20;99.90;;;;;;5132829;28;19907;-44
2023/07/30 04:27:05;;;;;;;;;;;15.20;99.90;;;;;;5133395;28;19914;-45
2023/07/30 04:29:31;;;;;;;;;;;15.20;99.90;;;;;;5133413;28;20351;-44
2023/07/30 04:31:56;;;;;;;;;;;15.20;99.90;;;;;;5132377;27;20006;-44
2023/07/30 04:34:22;;;;;;;;;;;15.10;99.90;;;;;;5133337;28;19908;-46
2023/07/30 04:36:47;;;;;;;;;;;15.20;99.90;;;;;;5133432;28;19914;-45
2023/07/30 04:39:13;;;;;;;;;;;15.20;99.90;;;;;;5132394;28;19995;-44
2023/07/30 04:41:38;;;;;;;;;;;15.30;99.90;;;;;;5122064;27;19939;-45
2023/07/30 04:44:04;;;;;;;;;;;15.20;99.90;;;;;;5112303;28;20014;-46
2023/07/30 04:46:29;;;;;;;;;;;15.30;99.90;;;;;;5126181;27;19915;-45
2023/07/30 04:48:55;;;;;;;;;;;15.30;99.90;;;;;;5124306;27;19922;-45
2023/07/30 04:51:20;;;;;;;;;;;15.30;99.90;;;;;;5136915;27;19918;-45
2023/07/30 04:53:46;;;;;;;;;;;15.30;99.90;;;;;;5136361;27;19908;-43
2023/07/30 04:56:11;;;;;;;;;;;15.30;99.90;;;;;;5136936;27;20438;-44
2023/07/30 04:58:37;;;;;;;;;;;15.40;99.90;;;;;;5136887;27;19911;-44
2023/07/30 05:01:02;;;;;;;;;;;15.30;99.90;;;;;;5133838;27;20486;-45
2023/07/30 05:03:28;;;;;;;;;;;15.40;99.90;;;;;;5129275;27;20426;-44
2023/07/30 05:05:53;;;;;;;;;;;15.50;99.90;;;;;;5124581;27;19912;-49
2023/07/30 05:08:19;;;;;;;;;;;15.50;99.90;;;;;;5125699;27;20694;-44
2023/07/30 05:10:44;;;;;;;;;;;15.60;99.90;;;;;;5126879;27;19994;-45
2023/07/30 05:13:12;;;;;;;;;;;15.60;99.90;;;;;;5115945;28;19907;-46
2023/07/30 05:15:38;;;;;;;;;;;15.60;99.90;;;;;;5115900;28;19914;-45
2023/07/30 05:18:04;;;;;;;;;;;15.60;99.90;;;;;;5120780;27;20446;-47
2023/07/30 05:20:29;;;;;;;;;;;15.60;99.90;;;;;;5135688;27;19911;-44
2023/07/30 05:22:55;;;;;;;;;;;15.70;99.90;;;;;;5136990;27;20103;-47
2023/07/30 05:25:20;;;;;;;;;;;15.70;99.90;;;;;;5134359;27;19956;-46
2023/07/30 05:27:46;;;;;;;;;;;15.70;99.90;;;;;;5145635;27;19971;-44
2023/07/30 05:30:11;;;;;;;;;;;15.80;99.90;;;;;;5157029;27;19919;-44
2023/07/30 05:32:36;;;;;;;;;;;15.90;99.90;;;;;;5156967;27;19963;-45
2023/07/30 05:35:02;;;;;;;;;;;15.90;99.90;;;;;;5156207;27;19907;-45
2023/07/30 05:37:27;;;;;;;;;;;15.90;99.90;;;;;;5150964;27;19907;-46
2023/07/30 05:39:53;;;;;;;;;;;15.90;99.90;;;;;;5136200;27;19919;-44
2023/07/30 05:42:18;;;;;;;;;;;15.90;99.90;;;;;;5135047;27;20035;-46
2023/07/30 05:44:44;;;;;;;;;;;16.00;99.90;;;;;;5135490;27;19951;-45
2023/07/30 05:47:09;;;;;;;;;;;16.00;99.90;;;;;;5135195;27;19911;-44
2023/07/30 05:49:35;;;;;;;;;;;16.00;99.90;;;;;;5134689;27;19915;-45
2023/07/30 05:52:00;;;;;;;;;;;16.10;99.90;;;;;;5136081;27;19968;-45
2023/07/30 05:54:26;;;;;;;;;;;16.10;99.90;;;;;;5134791;27;19912;-44
2023/07/30 05:56:51;;;;;;;;;;;16.20;99.90;;;;;;5133816;27;19918;-44
2023/07/30 05:59:17;;;;;;;;;;;16.20;99.90;;;;;;5135936;27;19914;-45
2023/07/30 06:01:42;;;;;;;;;;;16.20;99.90;;;;;;5135716;27;19914;-45
2023/07/30 06:04:08;;;;;;;;;;;16.20;99.90;;;;;;5134771;27;20025;-44
2023/07/30 06:06:33;;;;;;;;;;;16.30;99.90;;;;;;5115959;27;20290;-43
2023/07/30 06:08:59;;;;;;;;;;;16.30;99.90;;;;;;5153224;27;19918;-45
2023/07/30 06:11:24;;;;;;;;;;;16.30;99.90;;;;;;5135904;27;19916;-45
2023/07/30 06:13:50;;;;;;;;;;;16.30;99.90;;;;;;5131334;27;19918;-44
2023/07/30 06:16:16;;;;;;;;;;;16.30;99.90;;;;;;5128664;27;20289;-45
2023/07/30 06:18:42;;;;;;;;;;;16.40;99.90;;;;;;5114588;27;19965;-45
2023/07/30 06:21:07;;;;;;;;;;;16.40;99.90;;;;;;5133429;27;20274;-46
2023/07/30 06:23:32;;;;;;;;;;;16.40;99.90;;;;;;5134774;27;19915;-46
2023/07/30 06:25:58;;;;;;;;;;;16.50;99.90;;;;;;5134649;27;20330;-45
2023/07/30 06:28:24;;;;;;;;;;;16.60;99.90;;;;;;5147002;27;19918;-47
2023/07/30 06:30:49;;;;;;;;;;;16.60;99.90;;;;;;5145226;27;19908;-44
2023/07/30 06:33:15;;;;;;;;;;;16.60;99.90;;;;;;5134987;27;19907;-45
2023/07/30 06:35:40;;;;;;;;;;;16.70;99.90;;;;;;5135086;27;19908;-45
2023/07/30 06:38:08;;;;;;;;;;;16.70;99.90;;;;;;5126852;27;19923;-44
2023/07/30 06:40:33;;;;;;;;;;;16.80;99.90;;;;;;5120806;27;19919;-47
2023/07/30 06:42:59;;;;;;;;;;;16.70;99.90;;;;;;5124302;27;19923;-44
2023/07/30 06:45:24;;;;;;;;;;;16.70;99.90;;;;;;5126823;27;19918;-49
2023/07/30 06:47:50;;;;;;;;;;;16.70;99.90;;;;;;5121404;27;19954;-47
2023/07/30 06:50:15;;;;;;;;;;;16.80;99.90;;;;;;5123912;27;19919;-45
2023/07/30 06:52:41;;;;;;;;;;;16.80;99.90;;;;;;5146205;27;20293;-45
2023/07/30 06:55:07;;;;;;;;;;;16.90;99.90;;;;;;5120054;27;19914;-44
2023/07/30 06:57:32;;;;;;;;;;;16.90;99.90;;;;;;5133604;27;20397;-44
2023/07/30 06:59:58;;;;;;;;;;;17.00;99.90;;;;;;5135906;27;20051;-46
2023/07/30 07:02:23;;;;;;;;;;;17.10;99.90;;;;;;5152040;27;19915;-45
2023/07/30 07:04:49;;;;;;;;;;;17.10;99.90;;;;;;5128311;27;20133;-43
2023/07/30 07:07:15;;;;;;;;;;;17.20;99.90;;;;;;5136857;27;19922;-45
2023/07/30 07:09:41;;;;;;;;;;;17.20;99.90;;;;;;5133085;27;19907;-45
2023/07/30 07:12:06;;;;;;;;;;;17.20;99.90;;;;;;5141355;27;20325;-46
2023/07/30 07:14:32;;;;;;;;;;;17.20;99.90;;;;;;5154021;27;19908;-44
2023/07/30 07:16:57;;;;;;;;;;;17.20;99.90;;;;;;5154763;27;19911;-45
2023/07/30 07:19:23;;;;;;;;;;;17.30;99.90;;;;;;5142722;27;20325;-44
2023/07/30 07:21:48;;;;;;;;;;;17.30;99.90;;;;;;5128931;27;19911;-45
2023/07/30 07:24:14;;;;;;;;;;;17.30;99.90;;;;;;5126707;27;19927;-46
2023/07/30 07:26:39;;;;;;;;;;;17.40;99.90;;;;;;5126325;27;20366;-44
2023/07/30 07:29:05;;;;;;;;;;;17.40;99.90;;;;;;5133240;27;19934;-45
2023/07/30 07:31:30;;;;;;;;;;;17.40;99.90;;;;;;5133876;27;19950;-46
2023/07/30 07:33:56;;;;;;;;;;;17.50;99.90;;;;;;5133213;27;19914;-45
2023/07/30 07:36:21;;;;;;;;;;;17.50;99.90;;;;;;5131349;27;19986;-46
2023/07/30 07:38:47;;;;;;;;;;;17.60;99.90;;;;;;5126331;27;19915;-45
2023/07/30 07:41:14;;;;;;;;;;;17.60;99.90;;;;;;5127544;27;20665;-45
2023/07/30 07:43:40;;;;;;;;;;;17.70;99.90;;;;;;5129287;27;19964;-46
2023/07/30 07:46:12;;;;;;;;;;;17.70;99.90;;;;;;5133800;27;19907;-45
2023/07/30 07:48:41;;;;;;;;;;;17.80;99.90;;;;;;5124484;27;19946;-50
2023/07/30 07:51:08;;;;;;;;;;;17.90;99.90;;;;;;5122656;27;19956;-46
2023/07/30 07:53:33;;;;;;;;;;;18.00;99.90;;;;;;5122035;27;19908;-49
2023/07/30 07:55:59;;;;;;;;;;;17.90;99.90;;;;;;5119401;27;19918;-46
2023/07/30 07:58:24;;;;;;;;;;;17.90;99.90;;;;;;5119000;27;20377;-45
2023/07/30 08:00:50;;;;;;;;;;;17.90;99.90;;;;;;5125427;27;19915;-44
2023/07/30 08:03:15;;;;;;;;;;;17.90;99.90;;;;;;5112268;28;19919;-43
2023/07/30 08:05:41;;;;;;;;;;;18.10;99.90;;;;;;5128990;27;19908;-44
2023/07/30 08:08:06;;;;;;;;;;;18.20;99.90;;;;;;5136750;27;19911;-44
2023/07/30 08:10:32;;;;;;;;;;;18.30;99.90;;;;;;5113331;28;19918;-47
2023/07/30 08:12:57;;;;;;;;;;;18.50;99.90;;;;;;5126304;27;20146;-48
2023/07/30 08:15:23;;;;;;;;;;;18.70;99.90;;;;;;5136487;27;20318;-45
2023/07/30 08:17:48;;;;;;;;;;;18.80;99.90;;;;;;5114239;27;19912;-46
2023/07/30 08:20:14;;;;;;;;;;;18.90;99.90;;;;;;5118211;27;20366;-45
2023/07/30 08:22:39;;;;;;;;;;;18.90;99.90;;;;;;5122785;27;19919;-44
2023/07/30 08:25:05;;;;;;;;;;;19.00;99.90;;;;;;5124846;27;20370;-44
2023/07/30 08:27:30;;;;;;;;;;;19.10;99.90;;;;;;5131472;27;19984;-43
2023/07/30 08:29:56;;;;;;;;;;;19.10;99.90;;;;;;5146238;27;19923;-40
2023/07/30 08:32:21;;;;;;;;;;;19.10;99.90;;;;;;5137056;27;19939;-45
2023/07/30 08:34:47;;;;;;;;;;;19.10;99.90;;;;;;5132897;27;19911;-43
2023/07/30 08:37:12;;;;;;;;;;;19.10;99.90;;;;;;5142638;27;20369;-43
2023/07/30 08:39:38;;;;;;;;;;;19.10;99.90;;;;;;5147324;27;19964;-45
2023/07/30 08:42:03;;;;;;;;;;;19.10;99.90;;;;;;5140701;27;19963;-45
2023/07/30 08:44:29;;;;;;;;;;;19.00;99.90;;;;;;5153596;27;19919;-42
2023/07/30 08:46:54;;;;;;;;;;;19.10;99.90;;;;;;5134472;27;19912;-44
2023/07/30 08:49:20;;;;;;;;;;;19.00;99.90;;;;;;5134681;27;19915;-45
2023/07/30 08:51:48;;;;;;;;;;;19.00;99.90;;;;;;5135634;27;19911;-43
2023/07/30 08:54:14;;;;;;;;;;;19.00;99.90;;;;;;5137097;27;19908;-44
2023/07/30 08:56:39;;;;;;;;;;;18.90;99.90;;;;;;5137035;27;19997;-42
2023/07/30 08:59:05;;;;;;;;;;;18.80;99.90;;;;;;5151570;27;19979;-44
2023/07/30 09:01:34;;;;;;;;;;;18.80;99.90;;;;;;5157722;27;19999;-43
2023/07/30 09:04:00;;;;;;;;;;;18.80;99.90;;;;;;5157473;27;20381;-42
2023/07/30 09:06:26;;;;;;;;;;;18.80;99.90;;;;;;5156891;27;19915;-43
2023/07/30 09:08:51;;;;;;;;;;;18.70;99.90;;;;;;5157448;27;20317;-42
2023/07/30 09:11:17;;;;;;;;;;;18.70;99.90;;;;;;5157477;27;19932;-44
2023/07/30 09:13:42;;;;;;;;;;;18.60;99.90;;;;;;5156851;27;19952;-43
2023/07/30 09:16:09;;;;;;;;;;;18.60;99.90;;;;;;5157381;27;19912;-44
2023/07/30 09:18:41;;;;;;;;;;;18.50;99.90;;;;;;5157365;27;19913;-41
2023/07/30 09:21:07;;;;;;;;;;;18.30;99.90;;;;;;5156553;27;19907;-43
2023/07/30 09:23:38;;;;;;;;;;;18.30;99.90;;;;;;5157226;27;20270;-43
2023/07/30 09:26:04;;;;;;;;;;;18.20;99.90;;;;;;5157230;27;19975;-49
2023/07/30 09:28:32;;;;;;;;;;;18.10;99.90;;;;;;5156497;27;20314;-43
2023/07/30 09:31:06;;;;;;;;;;;17.90;99.90;;;;;;5156477;27;19907;-46
2023/07/30 09:33:32;;;;;;;;;;;17.80;99.90;;;;;;5153779;27;19946;-45
2023/07/30 09:35:58;;;;;;;;;;;17.70;99.90;;;;;;5136496;27;20422;-42
2023/07/30 09:38:25;;;;;;;;;;;17.70;99.90;;;;;;5136433;27;19908;-42
2023/07/30 09:40:51;;;;;;;;;;;17.70;99.90;;;;;;5135459;27;19908;-42
2023/07/30 09:43:17;;;;;;;;;;;17.70;99.90;;;;;;5135844;27;19919;-44
2023/07/30 09:45:44;;;;;;;;;;;17.80;99.90;;;;;;5136139;27;19914;-43
2023/07/30 09:48:10;;;;;;;;;;;17.90;99.90;;;;;;5135126;27;20051;-45
2023/07/30 09:50:36;;;;;;;;;;;18.00;99.90;;;;;;5136030;27;19955;-42
2023/07/30 09:53:03;;;;;;;;;;;18.00;99.90;;;;;;5135861;27;19908;-42
2023/07/30 09:55:28;;;;;;;;;;;17.90;99.90;;;;;;5135094;27;19994;-43
2023/07/30 09:57:54;;;;;;;;;;;17.60;99.90;;;;;;5135888;27;20007;-42
2023/07/30 10:00:19;;;;;;;;;;;17.10;99.90;;;;;;5133394;27;19912;-45
2023/07/30 10:02:45;;;;;;;;;;;16.60;99.90;;;;;;5125789;27;19925;-44
2023/07/30 10:05:14;;;;;;;;;;;16.30;99.90;;;;;;5133109;27;19907;-43
2023/07/30 10:07:42;;;;;;;;;;;16.10;99.90;;;;;;5117295;27;19907;-43
2023/07/30 10:10:08;;;;;;;;;;;15.90;99.90;;;;;;5131041;27;20002;-42
2023/07/30 10:12:35;;;;;;;;;;;15.90;99.90;;;;;;5133510;27;19950;-44
2023/07/30 10:15:01;;;;;;;;;;;15.80;99.90;;;;;;5122823;27;19965;-44
2023/07/30 10:17:28;;;;;;;;;;;15.80;99.90;;;;;;5118242;27;20467;-44
2023/07/30 10:19:54;;;;;;;;;;;15.70;99.90;;;;;;5120673;27;19912;-45
2023/07/30 10:22:20;;;;;;;;;;;15.70;99.90;;;;;;5114097;28;19908;-43
2023/07/30 10:24:55;;;;;;;;;;;15.70;99.90;;;;;;5110223;28;19962;-43
2023/07/30 10:27:25;;;;;;;;;;;15.70;99.90;;;;;;5113557;28;19916;-44
2023/07/30 10:30:07;;;;;;;;;;;15.70;99.90;;;;;;5113795;28;19908;-44
2023/07/30 10:32:39;;;;;;;;;;;15.80;99.90;;;;;;5113246;28;19908;-44
2023/07/30 10:35:05;;;;;;;;;;;15.90;99.90;;;;;;5145344;27;19997;-44
2023/07/30 10:37:31;;;;;;;;;;;16.00;99.90;;;;;;5134792;27;20018;-44
2023/07/30 10:39:56;;;;;;;;;;;16.00;99.90;;;;;;5120916;27;19956;-47
2023/07/30 10:42:22;;;;;;;;;;;16.10;99.90;;;;;;5115853;27;19922;-48
2023/07/30 10:44:48;;;;;;;;;;;16.20;99.90;;;;;;5112939;27;19968;-46
2023/07/30 10:47:14;;;;;;;;;;;16.40;99.90;;;;;;5125424;27;19912;-43
2023/07/30 10:49:47;;;;;;;;;;;16.60;99.90;;;;;;5127492;27;19912;-44
2023/07/30 10:52:12;;;;;;;;;;;16.80;99.90;;;;;;5128746;27;19912;-45
2023/07/30 10:54:38;;;;;;;;;;;17.00;99.90;;;;;;5129514;27;19918;-47
2023/07/30 10:57:04;;;;;;;;;;;17.10;99.90;;;;;;5133337;27;20006;-43
2023/07/30 10:59:36;;;;;;;;;;;17.40;99.90;;;;;;5118638;27;20480;-43
2023/07/30 11:02:02;;;;;;;;;;;17.70;99.90;;;;;;5122205;27;19956;-43
2023/07/30 11:04:27;;;;;;;;;;;17.90;99.90;;;;;;5120636;27;20017;-43
2023/07/30 11:06:53;;;;;;;;;;;18.10;99.90;;;;;;5133700;27;20000;-44
2023/07/30 11:09:20;;;;;;;;;;;18.20;99.90;;;;;;5126088;27;20287;-44
2023/07/30 11:11:46;;;;;;;;;;;18.40;99.90;;;;;;5113730;28;19922;-43
2023/07/30 11:14:15;;;;;;;;;;;18.60;99.90;;;;;;5112811;28;19912;-44
2023/07/30 11:16:47;;;;;;;;;;;18.70;99.90;;;;;;5115820;27;19912;-43
2023/07/30 11:19:14;;;;;;;;;;;18.90;99.90;;;;;;5119559;27;19969;-45
2023/07/30 11:21:44;;;;;;;;;;;19.20;99.90;;;;;;5114816;27;20275;-44
2023/07/30 11:24:09;;;;;;;;;;;19.40;99.90;;;;;;5132148;27;19915;-43
2023/07/30 11:26:35;;;;;;;;;;;19.60;99.90;;;;;;5120559;27;20347;-45
2023/07/30 11:29:00;;;;;;;;;;;19.60;99.90;;;;;;5132282;27;19907;-44
2023/07/30 11:31:27;;;;;;;;;;;19.70;99.90;;;;;;5121117;27;19919;-42
2023/07/30 11:33:52;;;;;;;;;;;19.90;99.90;;;;;;5125922;27;19919;-44
2023/07/30 11:36:19;;;;;;;;;;;20.00;99.90;;;;;;5113215;28;19908;-44
2023/07/30 11:38:46;;;;;;;;;;;20.00;99.90;;;;;;5113335;28;19987;-43
2023/07/30 11:41:12;;;;;;;;;;;20.10;99.90;;;;;;5112825;28;19929;-43
2023/07/30 11:43:38;;;;;;;;;;;20.30;99.90;;;;;;5112901;28;19927;-43
2023/07/30 11:46:06;;;;;;;;;;;20.30;99.90;;;;;;5113091;28;19908;-43
2023/07/30 11:48:31;;;;;;;;;;;20.40;99.90;;;;;;5112554;28;19912;-44
2023/07/30 11:50:57;;;;;;;;;;;20.50;99.90;;;;;;5113369;28;20354;-45
2023/07/30 11:53:43;;;;;;;;;;;20.50;99.90;;;;;;5113190;28;20010;-45
2023/07/30 11:56:14;;;;;;;;;;;20.40;99.90;;;;;;5111910;28;19912;-43
2023/07/30 11:58:41;;;;;;;;;;;20.40;99.90;;;;;;5113323;28;20003;-45
2023/07/30 12:01:07;;;;;;;;;;;20.60;99.90;;;;;;5112731;28;20320;-45
2023/07/30 12:03:32;;;;;;;;;;;20.50;99.90;;;;;;5125010;28;19976;-43
2023/07/30 12:05:57;;;;;;;;;;;20.40;99.90;;;;;;5122817;28;19911;-43
2023/07/30 12:08:25;;;;;;;;;;;20.50;99.90;;;;;;5115726;28;19927;-45
2023/07/30 12:10:52;;;;;;;;;;;20.40;99.90;;;;;;5110531;28;19912;-43
2023/07/30 12:13:18;;;;;;;;;;;20.40;99.90;;;;;;5119434;28;20319;-43
2023/07/30 12:15:53;;;;;;;;;;;20.40;99.90;;;;;;5118093;28;20015;-43
2023/07/30 12:18:19;;;;;;;;;;;20.30;99.90;;;;;;5113009;28;19908;-42
2023/07/30 12:20:45;;;;;;;;;;;20.20;99.90;;;;;;5112799;28;19918;-44
2023/07/30 12:23:11;;;;;;;;;;;20.00;99.90;;;;;;5115935;28;19923;-45
2023/07/30 12:25:36;;;;;;;;;;;19.90;99.90;;;;;;5124715;27;20267;-46
2023/07/30 12:28:02;;;;;;;;;;;19.90;99.90;;;;;;5133656;28;19908;-44
2023/07/30 12:30:27;;;;;;;;;;;19.90;99.90;;;;;;5133184;28;20002;-44
2023/07/30 12:32:53;;;;;;;;;;;19.80;99.90;;;;;;5133477;28;19908;-44
2023/07/30 12:35:19;;;;;;;;;;;19.70;99.90;;;;;;5132953;28;19919;-46
2023/07/30 12:37:44;;;;;;;;;;;19.50;99.90;;;;;;5132670;28;19907;-44
2023/07/30 12:40:10;;;;;;;;;;;19.30;99.90;;;;;;5133183;28;19908;-43
2023/07/30 12:42:35;;;;;;;;;;;19.20;99.90;;;;;;5133116;27;19919;-44
2023/07/30 12:45:01;;;;;;;;;;;19.30;99.90;;;;;;5132159;28;20393;-43
2023/07/30 12:47:26;;;;;;;;;;;19.50;99.90;;;;;;5133198;28;19908;-45
2023/07/30 12:49:52;;;;;;;;;;;19.40;99.90;;;;;;5133203;28;19914;-42
2023/07/30 12:52:17;;;;;;;;;;;19.60;99.90;;;;;;5132450;28;19927;-43
2023/07/30 12:54:43;;;;;;;;;;;19.80;99.90;;;;;;5132950;28;20435;-44
2023/07/30 12:57:08;;;;;;;;;;;19.70;99.90;;;;;;5133120;28;19920;-45
2023/07/30 12:59:35;;;;;;;;;;;19.70;99.90;;;;;;5132533;28;19908;-44
2023/07/30 13:02:01;;;;;;;;;;;19.60;99.90;;;;;;5133060;28;20301;-43
2023/07/30 13:04:27;;;;;;;;;;;19.40;99.90;;;;;;5126179;28;19920;-42
2023/07/30 13:06:53;;;;;;;;;;;18.50;99.90;;;;;;5113421;28;19911;-41
2023/07/30 13:09:18;;;;;;;;;;;17.80;99.90;;;;;;5116164;28;19915;-41
2023/07/30 13:11:44;;;;;;;;;;;17.30;99.90;;;;;;5115479;28;19914;-43
2023/07/30 13:14:09;;;;;;;;;;;16.90;99.90;;;;;;5115891;28;19957;-42
2023/07/30 13:16:35;;;;;;;;;;;16.70;99.90;;;;;;5115949;28;20018;-42
2023/07/30 13:19:00;;;;;;;;;;;16.60;99.90;;;;;;5115176;28;19908;-42
2023/07/30 13:21:26;;;;;;;;;;;16.60;99.90;;;;;;5116019;28;19912;-42
2023/07/30 13:23:51;;;;;;;;;;;16.50;99.90;;;;;;5115870;27;19916;-42
2023/07/30 13:26:18;;;;;;;;;;;16.50;99.90;;;;;;5115193;28;19908;-42
2023/07/30 13:28:43;;;;;;;;;;;16.50;99.90;;;;;;5116031;28;19907;-42
2023/07/30 13:31:10;;;;;;;;;;;16.60;99.90;;;;;;5115806;28;19908;-43
2023/07/30 13:33:36;;;;;;;;;;;16.60;99.90;;;;;;5114921;28;19951;-42
2023/07/30 13:36:01;;;;;;;;;;;16.70;99.90;;;;;;5115851;28;20416;-41
2023/07/30 13:38:27;;;;;;;;;;;16.70;99.90;;;;;;5115690;28;20010;-41
2023/07/30 13:40:53;;;;;;;;;;;16.70;99.90;;;;;;5114831;28;20019;-41
2023/07/30 13:43:18;;;;;;;;;;;16.60;99.90;;;;;;5115266;27;19920;-42
2023/07/30 13:45:44;;;;;;;;;;;16.60;99.90;;;;;;5115690;28;19938;-42
2023/07/30 13:48:10;;;;;;;;;;;16.50;99.90;;;;;;5114645;28;19938;-41
2023/07/30 13:50:35;;;;;;;;;;;16.50;99.90;;;;;;5115500;28;19908;-42
2023/07/30 13:53:00;;;;;;;;;;;16.50;99.90;;;;;;5115405;27;19912;-41
2023/07/30 13:55:26;;;;;;;;;;;16.60;99.90;;;;;;5114758;28;19908;-41
2023/07/30 13:57:51;;;;;;;;;;;16.70;99.90;;;;;;5115484;28;19919;-41
2023/07/30 14:00:17;;;;;;;;;;;17.00;99.90;;;;;;5115576;28;19998;-41
2023/07/30 14:02:43;;;;;;;;;;;17.60;99.90;;;;;;5114293;27;19926;-42
2023/07/30 14:05:09;;;;;;;;;;;18.20;99.90;;;;;;5115225;28;19960;-40
2023/07/30 14:07:35;;;;;;;;;;;18.80;99.90;;;;;;5115264;28;19912;-40
2023/07/30 14:10:00;;;;;;;;;;;19.20;99.90;;;;;;5114461;28;19908;-40